sensor_id;sensor_type;location;lat;lon;timestamp;P1;durP1;ratioP1;P2;durP2;ratioP2
47589;SDS011;33316;52.298;9.056;2023-02-01T00:00:17;9.48;;;1.98;;
47589;SDS011;33316;52.298;9.056;2023-02-01T00:02:46;6.55;;;1.65;;
47589;SDS011;33316;52.298;9.056;2023-02-01T00:05:13;7.55;;;2.22;;
47589;SDS011;33316;52.298;9.056;2023-02-01T00:07:42;14.48;;;2.63;;
47589;SDS011;33316;52.298;9.056;2023-02-01T00:10:13;15.70;;;2.72;;
47589;SDS011;33316;52.298;9.056;2023-02-01T00:12:40;10.50;;;2.25;;
47589;SDS011;33316;52.298;9.056;2023-02-01T00:15:07;10.82;;;2.70;;
47589;SDS011;33316;52.298;9.056;2023-02-01T00:17:34;4.95;;;1.70;;
47589;SDS011;33316;52.298;9.056;2023-02-01T00:20:03;8.18;;;2.08;;
47589;SDS011;33316;52.298;9.056;2023-02-01T00:22:30;9.90;;;2.40;;
47589;SDS011;33316;52.298;9.056;2023-02-01T00:24:57;10.13;;;2.00;;
47589;SDS011;33316;52.298;9.056;2023-02-01T00:27:23;8.98;;;1.70;;
47589;SDS011;33316;52.298;9.056;2023-02-01T00:29:50;6.72;;;1.50;;
47589;SDS011;33316;52.298;9.056;2023-02-01T00:32:17;6.47;;;1.65;;
47589;SDS011;33316;52.298;9.056;2023-02-01T00:34:44;8.65;;;1.98;;
47589;SDS011;33316;52.298;9.056;2023-02-01T00:37:12;7.13;;;1.63;;
47589;SDS011;33316;52.298;9.056;2023-02-01T00:39:38;6.82;;;1.98;;
47589;SDS011;33316;52.298;9.056;2023-02-01T00:42:05;9.43;;;2.47;;
47589;SDS011;33316;52.298;9.056;2023-02-01T00:44:32;7.47;;;1.83;;
47589;SDS011;33316;52.298;9.056;2023-02-01T00:47:00;11.63;;;2.15;;
47589;SDS011;33316;52.298;9.056;2023-02-01T00:49:27;8.15;;;1.90;;
47589;SDS011;33316;52.298;9.056;2023-02-01T00:51:54;7.57;;;2.13;;
47589;SDS011;33316;52.298;9.056;2023-02-01T00:54:22;7.45;;;2.50;;
47589;SDS011;33316;52.298;9.056;2023-02-01T00:56:49;14.75;;;2.50;;
47589;SDS011;33316;52.298;9.056;2023-02-01T00:59:16;8.50;;;1.95;;
47589;SDS011;33316;52.298;9.056;2023-02-01T01:01:43;9.57;;;2.28;;
47589;SDS011;33316;52.298;9.056;2023-02-01T01:04:09;11.38;;;2.17;;
47589;SDS011;33316;52.298;9.056;2023-02-01T01:06:36;8.38;;;2.00;;
47589;SDS011;33316;52.298;9.056;2023-02-01T01:09:03;6.95;;;1.60;;
47589;SDS011;33316;52.298;9.056;2023-02-01T01:11:34;10.52;;;1.98;;
47589;SDS011;33316;52.298;9.056;2023-02-01T01:14:02;5.95;;;1.98;;
47589;SDS011;33316;52.298;9.056;2023-02-01T01:16:30;8.45;;;1.88;;
47589;SDS011;33316;52.298;9.056;2023-02-01T01:18:57;7.65;;;1.90;;
47589;SDS011;33316;52.298;9.056;2023-02-01T01:21:25;5.35;;;1.85;;
47589;SDS011;33316;52.298;9.056;2023-02-01T01:23:52;9.10;;;1.63;;
47589;SDS011;33316;52.298;9.056;2023-02-01T01:26:20;8.77;;;2.00;;
47589;SDS011;33316;52.298;9.056;2023-02-01T01:28:50;7.35;;;2.17;;
47589;SDS011;33316;52.298;9.056;2023-02-01T01:31:17;8.68;;;2.03;;
47589;SDS011;33316;52.298;9.056;2023-02-01T01:33:47;8.80;;;2.15;;
47589;SDS011;33316;52.298;9.056;2023-02-01T01:36:15;9.20;;;1.73;;
47589;SDS011;33316;52.298;9.056;2023-02-01T01:38:42;8.60;;;1.85;;
47589;SDS011;33316;52.298;9.056;2023-02-01T01:41:12;4.80;;;1.40;;
47589;SDS011;33316;52.298;9.056;2023-02-01T01:43:46;6.30;;;1.55;;
47589;SDS011;33316;52.298;9.056;2023-02-01T01:46:16;9.45;;;1.80;;
47589;SDS011;33316;52.298;9.056;2023-02-01T01:48:48;8.50;;;1.70;;
47589;SDS011;33316;52.298;9.056;2023-02-01T01:51:18;6.78;;;1.77;;
47589;SDS011;33316;52.298;9.056;2023-02-01T01:53:50;8.88;;;1.90;;
47589;SDS011;33316;52.298;9.056;2023-02-01T01:56:23;6.13;;;1.60;;
47589;SDS011;33316;52.298;9.056;2023-02-01T01:58:52;9.57;;;2.30;;
47589;SDS011;33316;52.298;9.056;2023-02-01T02:01:21;8.30;;;2.55;;
47589;SDS011;33316;52.298;9.056;2023-02-01T02:03:47;9.45;;;2.13;;
47589;SDS011;33316;52.298;9.056;2023-02-01T02:06:16;10.55;;;1.90;;
47589;SDS011;33316;52.298;9.056;2023-02-01T02:08:53;11.95;;;2.10;;
47589;SDS011;33316;52.298;9.056;2023-02-01T02:11:19;8.68;;;1.88;;
47589;SDS011;33316;52.298;9.056;2023-02-01T02:13:47;7.35;;;1.85;;
47589;SDS011;33316;52.298;9.056;2023-02-01T02:19:30;7.07;;;1.85;;
47589;SDS011;33316;52.298;9.056;2023-02-01T02:22:39;9.52;;;1.92;;
47589;SDS011;33316;52.298;9.056;2023-02-01T02:25:23;8.75;;;1.92;;
47589;SDS011;33316;52.298;9.056;2023-02-01T02:28:11;7.57;;;1.60;;
47589;SDS011;33316;52.298;9.056;2023-02-01T02:30:58;10.82;;;1.67;;
47589;SDS011;33316;52.298;9.056;2023-02-01T02:33:48;7.35;;;1.55;;
47589;SDS011;33316;52.298;9.056;2023-02-01T02:36:27;9.07;;;1.92;;
47589;SDS011;33316;52.298;9.056;2023-02-01T02:39:03;7.55;;;2.00;;
47589;SDS011;33316;52.298;9.056;2023-02-01T02:41:36;8.70;;;1.92;;
47589;SDS011;33316;52.298;9.056;2023-02-01T02:44:30;9.27;;;1.95;;
47589;SDS011;33316;52.298;9.056;2023-02-01T02:47:21;11.85;;;2.20;;
47589;SDS011;33316;52.298;9.056;2023-02-01T02:50:04;10.38;;;1.75;;
47589;SDS011;33316;52.298;9.056;2023-02-01T02:52:57;4.88;;;1.70;;
47589;SDS011;33316;52.298;9.056;2023-02-01T02:55:43;8.77;;;1.92;;
47589;SDS011;33316;52.298;9.056;2023-02-01T02:58:11;8.57;;;1.90;;
47589;SDS011;33316;52.298;9.056;2023-02-01T03:00:57;8.13;;;2.10;;
47589;SDS011;33316;52.298;9.056;2023-02-01T03:03:41;9.18;;;2.40;;
47589;SDS011;33316;52.298;9.056;2023-02-01T03:06:34;9.60;;;1.90;;
47589;SDS011;33316;52.298;9.056;2023-02-01T03:09:03;10.25;;;2.30;;
47589;SDS011;33316;52.298;9.056;2023-02-01T03:11:35;9.02;;;1.83;;
47589;SDS011;33316;52.298;9.056;2023-02-01T03:14:20;9.02;;;1.92;;
47589;SDS011;33316;52.298;9.056;2023-02-01T03:16:54;7.25;;;1.95;;
47589;SDS011;33316;52.298;9.056;2023-02-01T03:19:25;5.88;;;1.70;;
47589;SDS011;33316;52.298;9.056;2023-02-01T03:22:01;8.95;;;1.98;;
47589;SDS011;33316;52.298;9.056;2023-02-01T03:24:31;6.47;;;1.67;;
47589;SDS011;33316;52.298;9.056;2023-02-01T03:27:02;8.07;;;2.40;;
47589;SDS011;33316;52.298;9.056;2023-02-01T03:29:34;7.35;;;1.88;;
47589;SDS011;33316;52.298;9.056;2023-02-01T03:32:06;7.18;;;1.88;;
47589;SDS011;33316;52.298;9.056;2023-02-01T03:34:34;6.95;;;1.75;;
47589;SDS011;33316;52.298;9.056;2023-02-01T03:37:03;8.32;;;1.67;;
47589;SDS011;33316;52.298;9.056;2023-02-01T03:39:34;11.77;;;2.08;;
47589;SDS011;33316;52.298;9.056;2023-02-01T03:42:06;14.43;;;2.90;;
47589;SDS011;33316;52.298;9.056;2023-02-01T03:44:40;12.52;;;2.80;;
47589;SDS011;33316;52.298;9.056;2023-02-01T03:47:13;10.55;;;1.95;;
47589;SDS011;33316;52.298;9.056;2023-02-01T03:49:45;9.93;;;2.33;;
47589;SDS011;33316;52.298;9.056;2023-02-01T03:52:16;13.75;;;2.65;;
47589;SDS011;33316;52.298;9.056;2023-02-01T03:54:47;5.80;;;1.77;;
47589;SDS011;33316;52.298;9.056;2023-02-01T03:57:16;7.70;;;2.00;;
47589;SDS011;33316;52.298;9.056;2023-02-01T03:59:47;13.43;;;2.67;;
47589;SDS011;33316;52.298;9.056;2023-02-01T04:02:15;9.73;;;2.20;;
47589;SDS011;33316;52.298;9.056;2023-02-01T04:04:45;7.88;;;1.75;;
47589;SDS011;33316;52.298;9.056;2023-02-01T04:07:11;9.35;;;2.33;;
47589;SDS011;33316;52.298;9.056;2023-02-01T04:09:39;10.77;;;2.05;;
47589;SDS011;33316;52.298;9.056;2023-02-01T04:12:07;8.07;;;1.95;;
47589;SDS011;33316;52.298;9.056;2023-02-01T04:14:33;7.70;;;2.03;;
47589;SDS011;33316;52.298;9.056;2023-02-01T04:17:00;6.30;;;2.08;;
47589;SDS011;33316;52.298;9.056;2023-02-01T04:19:27;8.45;;;2.03;;
47589;SDS011;33316;52.298;9.056;2023-02-01T04:21:53;9.73;;;2.17;;
47589;SDS011;33316;52.298;9.056;2023-02-01T04:24:20;12.07;;;3.10;;
47589;SDS011;33316;52.298;9.056;2023-02-01T04:26:48;6.50;;;1.88;;
47589;SDS011;33316;52.298;9.056;2023-02-01T04:29:15;8.07;;;1.90;;
47589;SDS011;33316;52.298;9.056;2023-02-01T04:31:42;5.00;;;1.52;;
47589;SDS011;33316;52.298;9.056;2023-02-01T04:34:08;7.20;;;1.77;;
47589;SDS011;33316;52.298;9.056;2023-02-01T04:36:35;9.05;;;1.58;;
47589;SDS011;33316;52.298;9.056;2023-02-01T04:39:02;7.00;;;2.00;;
47589;SDS011;33316;52.298;9.056;2023-02-01T04:41:29;8.15;;;2.28;;
47589;SDS011;33316;52.298;9.056;2023-02-01T04:43:57;10.43;;;2.20;;
47589;SDS011;33316;52.298;9.056;2023-02-01T04:46:23;10.82;;;2.92;;
47589;SDS011;33316;52.298;9.056;2023-02-01T04:48:50;8.73;;;2.10;;
47589;SDS011;33316;52.298;9.056;2023-02-01T04:51:17;9.90;;;2.25;;
47589;SDS011;33316;52.298;9.056;2023-02-01T04:53:44;8.98;;;2.40;;
47589;SDS011;33316;52.298;9.056;2023-02-01T04:56:11;8.68;;;2.38;;
47589;SDS011;33316;52.298;9.056;2023-02-01T04:58:38;9.68;;;2.08;;
47589;SDS011;33316;52.298;9.056;2023-02-01T05:01:06;12.32;;;2.30;;
47589;SDS011;33316;52.298;9.056;2023-02-01T05:03:34;6.57;;;2.08;;
47589;SDS011;33316;52.298;9.056;2023-02-01T05:06:01;11.15;;;1.92;;
47589;SDS011;33316;52.298;9.056;2023-02-01T05:08:29;5.85;;;1.98;;
47589;SDS011;33316;52.298;9.056;2023-02-01T05:10:56;6.90;;;1.83;;
47589;SDS011;33316;52.298;9.056;2023-02-01T05:13:23;9.43;;;2.00;;
47589;SDS011;33316;52.298;9.056;2023-02-01T05:16:09;12.55;;;2.20;;
47589;SDS011;33316;52.298;9.056;2023-02-01T05:18:36;10.48;;;2.00;;
47589;SDS011;33316;52.298;9.056;2023-02-01T05:21:03;10.57;;;2.03;;
47589;SDS011;33316;52.298;9.056;2023-02-01T05:23:30;10.02;;;2.53;;
47589;SDS011;33316;52.298;9.056;2023-02-01T05:25:59;10.40;;;2.30;;
47589;SDS011;33316;52.298;9.056;2023-02-01T05:28:26;9.30;;;1.90;;
47589;SDS011;33316;52.298;9.056;2023-02-01T05:30:54;9.30;;;2.42;;
47589;SDS011;33316;52.298;9.056;2023-02-01T05:33:22;8.63;;;2.28;;
47589;SDS011;33316;52.298;9.056;2023-02-01T05:35:48;9.98;;;2.03;;
47589;SDS011;33316;52.298;9.056;2023-02-01T05:38:16;8.40;;;2.05;;
47589;SDS011;33316;52.298;9.056;2023-02-01T05:40:43;9.88;;;2.28;;
47589;SDS011;33316;52.298;9.056;2023-02-01T05:43:14;8.25;;;1.92;;
47589;SDS011;33316;52.298;9.056;2023-02-01T05:45:41;8.60;;;2.00;;
47589;SDS011;33316;52.298;9.056;2023-02-01T05:48:07;7.57;;;2.20;;
47589;SDS011;33316;52.298;9.056;2023-02-01T05:50:35;9.00;;;1.70;;
47589;SDS011;33316;52.298;9.056;2023-02-01T05:53:02;8.13;;;2.05;;
47589;SDS011;33316;52.298;9.056;2023-02-01T05:55:29;8.23;;;2.42;;
47589;SDS011;33316;52.298;9.056;2023-02-01T05:57:55;9.93;;;1.95;;
47589;SDS011;33316;52.298;9.056;2023-02-01T06:00:22;9.68;;;2.15;;
47589;SDS011;33316;52.298;9.056;2023-02-01T06:02:50;9.77;;;1.83;;
47589;SDS011;33316;52.298;9.056;2023-02-01T06:05:16;7.72;;;1.70;;
47589;SDS011;33316;52.298;9.056;2023-02-01T06:07:44;10.70;;;2.22;;
47589;SDS011;33316;52.298;9.056;2023-02-01T06:10:11;7.80;;;1.73;;
47589;SDS011;33316;52.298;9.056;2023-02-01T06:12:38;6.93;;;2.08;;
47589;SDS011;33316;52.298;9.056;2023-02-01T06:15:05;6.35;;;2.22;;
47589;SDS011;33316;52.298;9.056;2023-02-01T06:17:33;5.90;;;1.60;;
47589;SDS011;33316;52.298;9.056;2023-02-01T06:20:00;7.05;;;1.55;;
47589;SDS011;33316;52.298;9.056;2023-02-01T06:22:27;10.40;;;2.50;;
47589;SDS011;33316;52.298;9.056;2023-02-01T06:24:55;8.65;;;2.55;;
47589;SDS011;33316;52.298;9.056;2023-02-01T06:27:23;11.55;;;2.30;;
47589;SDS011;33316;52.298;9.056;2023-02-01T06:29:49;7.30;;;2.25;;
47589;SDS011;33316;52.298;9.056;2023-02-01T06:32:16;9.45;;;1.73;;
47589;SDS011;33316;52.298;9.056;2023-02-01T06:34:43;12.10;;;2.38;;
47589;SDS011;33316;52.298;9.056;2023-02-01T06:37:10;9.75;;;2.05;;
47589;SDS011;33316;52.298;9.056;2023-02-01T06:39:37;7.30;;;2.08;;
47589;SDS011;33316;52.298;9.056;2023-02-01T06:42:05;9.15;;;2.70;;
47589;SDS011;33316;52.298;9.056;2023-02-01T06:44:32;9.25;;;2.20;;
47589;SDS011;33316;52.298;9.056;2023-02-01T06:46:59;9.77;;;2.20;;
47589;SDS011;33316;52.298;9.056;2023-02-01T06:49:25;8.10;;;2.05;;
47589;SDS011;33316;52.298;9.056;2023-02-01T06:51:52;9.73;;;2.67;;
47589;SDS011;33316;52.298;9.056;2023-02-01T06:54:19;9.60;;;2.42;;
47589;SDS011;33316;52.298;9.056;2023-02-01T06:56:45;10.45;;;2.20;;
47589;SDS011;33316;52.298;9.056;2023-02-01T06:59:14;13.48;;;2.13;;
47589;SDS011;33316;52.298;9.056;2023-02-01T07:01:40;9.13;;;2.25;;
47589;SDS011;33316;52.298;9.056;2023-02-01T07:04:08;10.85;;;2.30;;
47589;SDS011;33316;52.298;9.056;2023-02-01T07:06:36;9.52;;;2.35;;
47589;SDS011;33316;52.298;9.056;2023-02-01T07:09:03;10.43;;;2.70;;
47589;SDS011;33316;52.298;9.056;2023-02-01T07:11:30;8.57;;;1.75;;
47589;SDS011;33316;52.298;9.056;2023-02-01T07:13:57;7.53;;;2.03;;
47589;SDS011;33316;52.298;9.056;2023-02-01T07:16:25;9.50;;;1.98;;
47589;SDS011;33316;52.298;9.056;2023-02-01T07:18:52;9.90;;;2.17;;
47589;SDS011;33316;52.298;9.056;2023-02-01T07:21:19;10.48;;;2.05;;
47589;SDS011;33316;52.298;9.056;2023-02-01T07:23:46;11.27;;;2.47;;
47589;SDS011;33316;52.298;9.056;2023-02-01T07:26:13;8.32;;;2.00;;
47589;SDS011;33316;52.298;9.056;2023-02-01T07:28:41;7.30;;;1.90;;
47589;SDS011;33316;52.298;9.056;2023-02-01T07:31:09;9.02;;;1.98;;
47589;SDS011;33316;52.298;9.056;2023-02-01T07:33:39;10.35;;;2.28;;
47589;SDS011;33316;52.298;9.056;2023-02-01T07:36:07;9.05;;;2.47;;
47589;SDS011;33316;52.298;9.056;2023-02-01T07:38:37;9.35;;;2.40;;
47589;SDS011;33316;52.298;9.056;2023-02-01T07:41:04;10.57;;;1.92;;
47589;SDS011;33316;52.298;9.056;2023-02-01T07:43:33;7.25;;;1.98;;
47589;SDS011;33316;52.298;9.056;2023-02-01T07:46:00;6.93;;;1.95;;
47589;SDS011;33316;52.298;9.056;2023-02-01T07:48:29;7.82;;;1.80;;
47589;SDS011;33316;52.298;9.056;2023-02-01T07:50:58;7.43;;;1.83;;
47589;SDS011;33316;52.298;9.056;2023-02-01T07:53:25;6.90;;;1.77;;
47589;SDS011;33316;52.298;9.056;2023-02-01T07:55:52;13.32;;;3.22;;
47589;SDS011;33316;52.298;9.056;2023-02-01T07:58:20;10.98;;;2.33;;
47589;SDS011;33316;52.298;9.056;2023-02-01T08:00:47;7.47;;;2.22;;
47589;SDS011;33316;52.298;9.056;2023-02-01T08:03:31;11.43;;;2.10;;
47589;SDS011;33316;52.298;9.056;2023-02-01T08:05:59;13.20;;;2.55;;
47589;SDS011;33316;52.298;9.056;2023-02-01T08:08:26;10.63;;;1.92;;
47589;SDS011;33316;52.298;9.056;2023-02-01T08:10:56;7.55;;;1.85;;
47589;SDS011;33316;52.298;9.056;2023-02-01T08:13:23;10.23;;;2.25;;
47589;SDS011;33316;52.298;9.056;2023-02-01T08:15:50;8.07;;;1.90;;
47589;SDS011;33316;52.298;9.056;2023-02-01T08:18:17;8.10;;;1.85;;
47589;SDS011;33316;52.298;9.056;2023-02-01T08:20:44;8.52;;;2.15;;
47589;SDS011;33316;52.298;9.056;2023-02-01T08:23:14;8.43;;;1.98;;
47589;SDS011;33316;52.298;9.056;2023-02-01T08:25:40;10.23;;;2.15;;
47589;SDS011;33316;52.298;9.056;2023-02-01T08:28:07;8.43;;;2.20;;
47589;SDS011;33316;52.298;9.056;2023-02-01T08:30:35;10.27;;;2.20;;
47589;SDS011;33316;52.298;9.056;2023-02-01T08:33:03;9.27;;;1.92;;
47589;SDS011;33316;52.298;9.056;2023-02-01T08:35:31;9.85;;;2.08;;
47589;SDS011;33316;52.298;9.056;2023-02-01T08:37:57;8.48;;;1.85;;
47589;SDS011;33316;52.298;9.056;2023-02-01T08:40:25;7.93;;;1.73;;
47589;SDS011;33316;52.298;9.056;2023-02-01T08:42:53;7.15;;;1.70;;
47589;SDS011;33316;52.298;9.056;2023-02-01T08:45:20;8.65;;;2.08;;
47589;SDS011;33316;52.298;9.056;2023-02-01T08:47:49;9.70;;;2.33;;
47589;SDS011;33316;52.298;9.056;2023-02-01T08:50:16;6.97;;;1.73;;
47589;SDS011;33316;52.298;9.056;2023-02-01T08:52:44;8.30;;;1.70;;
47589;SDS011;33316;52.298;9.056;2023-02-01T08:55:12;8.30;;;1.90;;
47589;SDS011;33316;52.298;9.056;2023-02-01T08:57:41;6.93;;;2.00;;
47589;SDS011;33316;52.298;9.056;2023-02-01T09:00:09;6.82;;;1.80;;
47589;SDS011;33316;52.298;9.056;2023-02-01T09:02:38;8.05;;;2.35;;
47589;SDS011;33316;52.298;9.056;2023-02-01T09:05:05;10.05;;;2.13;;
47589;SDS011;33316;52.298;9.056;2023-02-01T09:07:33;8.43;;;2.03;;
47589;SDS011;33316;52.298;9.056;2023-02-01T09:10:00;9.95;;;2.00;;
47589;SDS011;33316;52.298;9.056;2023-02-01T09:12:27;5.53;;;1.90;;
47589;SDS011;33316;52.298;9.056;2023-02-01T09:14:56;7.78;;;2.08;;
47589;SDS011;33316;52.298;9.056;2023-02-01T09:17:24;7.38;;;2.08;;
47589;SDS011;33316;52.298;9.056;2023-02-01T09:19:51;7.50;;;2.28;;
47589;SDS011;33316;52.298;9.056;2023-02-01T09:22:17;12.23;;;2.15;;
47589;SDS011;33316;52.298;9.056;2023-02-01T09:24:44;12.45;;;2.28;;
47589;SDS011;33316;52.298;9.056;2023-02-01T09:27:11;8.23;;;2.15;;
47589;SDS011;33316;52.298;9.056;2023-02-01T09:29:38;8.77;;;2.33;;
47589;SDS011;33316;52.298;9.056;2023-02-01T09:32:06;6.60;;;2.08;;
47589;SDS011;33316;52.298;9.056;2023-02-01T09:34:33;6.03;;;1.60;;
47589;SDS011;33316;52.298;9.056;2023-02-01T09:37:00;7.43;;;1.92;;
47589;SDS011;33316;52.298;9.056;2023-02-01T09:39:27;9.63;;;2.22;;
47589;SDS011;33316;52.298;9.056;2023-02-01T09:41:57;7.35;;;2.10;;
47589;SDS011;33316;52.298;9.056;2023-02-01T09:44:34;10.35;;;2.13;;
47589;SDS011;33316;52.298;9.056;2023-02-01T09:47:14;5.85;;;1.70;;
47589;SDS011;33316;52.298;9.056;2023-02-01T09:49:45;7.38;;;2.05;;
47589;SDS011;33316;52.298;9.056;2023-02-01T09:52:17;8.73;;;2.10;;
47589;SDS011;33316;52.298;9.056;2023-02-01T09:54:52;10.20;;;2.10;;
47589;SDS011;33316;52.298;9.056;2023-02-01T09:57:26;5.35;;;2.08;;
47589;SDS011;33316;52.298;9.056;2023-02-01T09:59:58;9.48;;;2.00;;
47589;SDS011;33316;52.298;9.056;2023-02-01T10:02:32;10.57;;;2.10;;
47589;SDS011;33316;52.298;9.056;2023-02-01T10:05:03;10.45;;;2.45;;
47589;SDS011;33316;52.298;9.056;2023-02-01T10:07:33;9.10;;;2.35;;
47589;SDS011;33316;52.298;9.056;2023-02-01T10:10:05;9.50;;;2.03;;
47589;SDS011;33316;52.298;9.056;2023-02-01T10:12:44;10.27;;;2.05;;
47589;SDS011;33316;52.298;9.056;2023-02-01T10:15:34;8.18;;;1.65;;
47589;SDS011;33316;52.298;9.056;2023-02-01T10:18:27;9.20;;;2.10;;
47589;SDS011;33316;52.298;9.056;2023-02-01T10:21:04;6.53;;;1.60;;
47589;SDS011;33316;52.298;9.056;2023-02-01T10:23:45;7.72;;;1.73;;
47589;SDS011;33316;52.298;9.056;2023-02-01T10:26:25;10.70;;;2.00;;
47589;SDS011;33316;52.298;9.056;2023-02-01T10:28:56;9.88;;;2.10;;
47589;SDS011;33316;52.298;9.056;2023-02-01T10:31:26;8.90;;;1.90;;
47589;SDS011;33316;52.298;9.056;2023-02-01T10:33:58;8.40;;;2.20;;
47589;SDS011;33316;52.298;9.056;2023-02-01T10:36:28;6.90;;;1.90;;
47589;SDS011;33316;52.298;9.056;2023-02-01T10:38:57;9.95;;;2.05;;
47589;SDS011;33316;52.298;9.056;2023-02-01T10:41:24;6.95;;;1.80;;
47589;SDS011;33316;52.298;9.056;2023-02-01T10:43:57;8.32;;;1.88;;
47589;SDS011;33316;52.298;9.056;2023-02-01T10:46:26;7.72;;;1.88;;
47589;SDS011;33316;52.298;9.056;2023-02-01T10:48:55;14.63;;;2.22;;
47589;SDS011;33316;52.298;9.056;2023-02-01T10:53:58;6.22;;;1.50;;
47589;SDS011;33316;52.298;9.056;2023-02-01T10:56:28;6.60;;;1.63;;
47589;SDS011;33316;52.298;9.056;2023-02-01T10:58:59;8.15;;;1.92;;
47589;SDS011;33316;52.298;9.056;2023-02-01T11:01:31;5.43;;;1.55;;
47589;SDS011;33316;52.298;9.056;2023-02-01T11:04:02;10.02;;;2.15;;
47589;SDS011;33316;52.298;9.056;2023-02-01T11:06:34;7.57;;;1.85;;
47589;SDS011;33316;52.298;9.056;2023-02-01T11:09:09;9.15;;;2.10;;
47589;SDS011;33316;52.298;9.056;2023-02-01T11:11:52;9.57;;;1.73;;
47589;SDS011;33316;52.298;9.056;2023-02-01T11:14:25;9.43;;;1.88;;
47589;SDS011;33316;52.298;9.056;2023-02-01T11:16:54;5.32;;;1.70;;
47589;SDS011;33316;52.298;9.056;2023-02-01T11:19:24;7.93;;;1.98;;
47589;SDS011;33316;52.298;9.056;2023-02-01T11:21:51;3.97;;;1.70;;
47589;SDS011;33316;52.298;9.056;2023-02-01T11:24:21;7.57;;;1.83;;
47589;SDS011;33316;52.298;9.056;2023-02-01T11:26:50;5.23;;;1.60;;
47589;SDS011;33316;52.298;9.056;2023-02-01T11:29:20;4.38;;;1.45;;
47589;SDS011;33316;52.298;9.056;2023-02-01T11:31:53;5.30;;;1.65;;
47589;SDS011;33316;52.298;9.056;2023-02-01T11:34:24;9.50;;;1.50;;
47589;SDS011;33316;52.298;9.056;2023-02-01T11:36:54;6.93;;;1.90;;
47589;SDS011;33316;52.298;9.056;2023-02-01T11:39:26;8.68;;;2.08;;
47589;SDS011;33316;52.298;9.056;2023-02-01T11:42:00;7.93;;;2.15;;
47589;SDS011;33316;52.298;9.056;2023-02-01T11:44:31;8.38;;;2.17;;
47589;SDS011;33316;52.298;9.056;2023-02-01T11:47:17;7.28;;;1.85;;
47589;SDS011;33316;52.298;9.056;2023-02-01T11:49:50;8.63;;;2.28;;
47589;SDS011;33316;52.298;9.056;2023-02-01T11:52:22;9.02;;;2.13;;
47589;SDS011;33316;52.298;9.056;2023-02-01T11:55:12;7.80;;;2.25;;
47589;SDS011;33316;52.298;9.056;2023-02-01T11:57:50;6.53;;;1.50;;
47589;SDS011;33316;52.298;9.056;2023-02-01T12:00:33;8.65;;;1.90;;
47589;SDS011;33316;52.298;9.056;2023-02-01T12:03:37;7.95;;;1.50;;
47589;SDS011;33316;52.298;9.056;2023-02-01T12:06:20;5.95;;;1.75;;
47589;SDS011;33316;52.298;9.056;2023-02-01T12:09:04;9.05;;;1.92;;
47589;SDS011;33316;52.298;9.056;2023-02-01T12:11:42;5.45;;;1.40;;
47589;SDS011;33316;52.298;9.056;2023-02-01T12:14:21;7.13;;;1.95;;
47589;SDS011;33316;52.298;9.056;2023-02-01T12:17:01;6.35;;;1.95;;
47589;SDS011;33316;52.298;9.056;2023-02-01T12:19:59;10.27;;;2.17;;
47589;SDS011;33316;52.298;9.056;2023-02-01T12:22:38;5.95;;;1.58;;
47589;SDS011;33316;52.298;9.056;2023-02-01T12:25:24;7.13;;;1.58;;
47589;SDS011;33316;52.298;9.056;2023-02-01T12:28:20;5.50;;;1.25;;
47589;SDS011;33316;52.298;9.056;2023-02-01T12:31:16;4.35;;;1.02;;
47589;SDS011;33316;52.298;9.056;2023-02-01T12:33:53;5.97;;;1.63;;
47589;SDS011;33316;52.298;9.056;2023-02-01T12:36:32;7.60;;;1.73;;
47589;SDS011;33316;52.298;9.056;2023-02-01T12:39:10;5.55;;;1.40;;
47589;SDS011;33316;52.298;9.056;2023-02-01T12:41:51;5.00;;;1.48;;
47589;SDS011;33316;52.298;9.056;2023-02-01T12:44:27;4.70;;;1.33;;
47589;SDS011;33316;52.298;9.056;2023-02-01T12:46:59;6.03;;;1.23;;
47589;SDS011;33316;52.298;9.056;2023-02-01T12:49:34;5.80;;;1.13;;
47589;SDS011;33316;52.298;9.056;2023-02-01T12:52:10;4.85;;;1.50;;
47589;SDS011;33316;52.298;9.056;2023-02-01T12:54:44;4.30;;;1.20;;
47589;SDS011;33316;52.298;9.056;2023-02-01T12:57:15;5.55;;;1.25;;
47589;SDS011;33316;52.298;9.056;2023-02-01T12:59:48;4.82;;;1.33;;
47589;SDS011;33316;52.298;9.056;2023-02-01T13:02:19;6.65;;;1.92;;
47589;SDS011;33316;52.298;9.056;2023-02-01T13:04:55;5.30;;;1.30;;
47589;SDS011;33316;52.298;9.056;2023-02-01T13:07:29;3.65;;;1.25;;
47589;SDS011;33316;52.298;9.056;2023-02-01T13:10:03;2.42;;;1.45;;
47589;SDS011;33316;52.298;9.056;2023-02-01T13:12:40;3.63;;;1.30;;
47589;SDS011;33316;52.298;9.056;2023-02-01T13:15:11;3.65;;;1.60;;
47589;SDS011;33316;52.298;9.056;2023-02-01T13:17:42;2.95;;;1.30;;
47589;SDS011;33316;52.298;9.056;2023-02-01T13:20:14;3.33;;;1.30;;
47589;SDS011;33316;52.298;9.056;2023-02-01T13:22:47;3.17;;;1.23;;
47589;SDS011;33316;52.298;9.056;2023-02-01T13:25:24;5.82;;;1.60;;
47589;SDS011;33316;52.298;9.056;2023-02-01T13:27:55;3.80;;;1.20;;
47589;SDS011;33316;52.298;9.056;2023-02-01T13:30:29;4.72;;;1.40;;
47589;SDS011;33316;52.298;9.056;2023-02-01T13:33:14;3.72;;;1.58;;
47589;SDS011;33316;52.298;9.056;2023-02-01T13:36:00;2.90;;;1.35;;
47589;SDS011;33316;52.298;9.056;2023-02-01T13:38:57;4.55;;;1.60;;
47589;SDS011;33316;52.298;9.056;2023-02-01T13:42:00;4.15;;;1.60;;
47589;SDS011;33316;52.298;9.056;2023-02-01T13:46:58;3.42;;;1.25;;
47589;SDS011;33316;52.298;9.056;2023-02-01T13:49:28;2.67;;;1.17;;
47589;SDS011;33316;52.298;9.056;2023-02-01T13:51:58;4.40;;;2.10;;
47589;SDS011;33316;52.298;9.056;2023-02-01T13:54:26;6.63;;;1.85;;
47589;SDS011;33316;52.298;9.056;2023-02-01T13:56:56;2.67;;;1.30;;
47589;SDS011;33316;52.298;9.056;2023-02-01T13:59:36;3.08;;;0.95;;
47589;SDS011;33316;52.298;9.056;2023-02-01T14:08:21;0.47;;;0.40;;
47589;SDS011;33316;52.298;9.056;2023-02-01T14:10:50;0.40;;;0.40;;
47589;SDS011;33316;52.298;9.056;2023-02-01T14:13:25;0.70;;;0.52;;
47589;SDS011;33316;52.298;9.056;2023-02-01T14:18:56;0.30;;;0.30;;
47589;SDS011;33316;52.298;9.056;2023-02-01T14:21:26;0.20;;;0.20;;
47589;SDS011;33316;52.298;9.056;2023-02-01T14:23:56;0.30;;;0.30;;
47589;SDS011;33316;52.298;9.056;2023-02-01T14:26:25;0.40;;;0.40;;
47589;SDS011;33316;52.298;9.056;2023-02-01T14:29:17;0.30;;;0.30;;
47589;SDS011;33316;52.298;9.056;2023-02-01T14:31:54;0.52;;;0.30;;
47589;SDS011;33316;52.298;9.056;2023-02-01T14:34:34;0.40;;;0.40;;
47589;SDS011;33316;52.298;9.056;2023-02-01T14:37:09;1.15;;;0.50;;
47589;SDS011;33316;52.298;9.056;2023-02-01T14:39:46;1.02;;;0.40;;
47589;SDS011;33316;52.298;9.056;2023-02-01T14:42:21;1.48;;;0.50;;
47589;SDS011;33316;52.298;9.056;2023-02-01T14:44:52;0.50;;;0.30;;
47589;SDS011;33316;52.298;9.056;2023-02-01T14:47:30;1.45;;;0.57;;
47589;SDS011;33316;52.298;9.056;2023-02-01T14:50:19;0.73;;;0.40;;
47589;SDS011;33316;52.298;9.056;2023-02-01T14:52:51;1.33;;;0.40;;
47589;SDS011;33316;52.298;9.056;2023-02-01T14:55:30;1.30;;;0.40;;
47589;SDS011;33316;52.298;9.056;2023-02-01T14:58:01;0.73;;;0.40;;
47589;SDS011;33316;52.298;9.056;2023-02-01T15:03:15;1.27;;;0.43;;
47589;SDS011;33316;52.298;9.056;2023-02-01T15:05:54;1.55;;;0.65;;
47589;SDS011;33316;52.298;9.056;2023-02-01T15:08:22;1.58;;;0.55;;
47589;SDS011;33316;52.298;9.056;2023-02-01T15:10:52;0.52;;;0.43;;
47589;SDS011;33316;52.298;9.056;2023-02-01T15:13:20;2.58;;;1.05;;
47589;SDS011;33316;52.298;9.056;2023-02-01T15:16:02;3.75;;;1.48;;
47589;SDS011;33316;52.298;9.056;2023-02-01T15:18:31;3.85;;;1.15;;
47589;SDS011;33316;52.298;9.056;2023-02-01T15:20:59;4.07;;;1.20;;
47589;SDS011;33316;52.298;9.056;2023-02-01T15:23:27;3.63;;;1.08;;
47589;SDS011;33316;52.298;9.056;2023-02-01T15:25:54;3.80;;;0.80;;
47589;SDS011;33316;52.298;9.056;2023-02-01T15:28:22;9.07;;;1.20;;
47589;SDS011;33316;52.298;9.056;2023-02-01T15:30:53;4.47;;;1.30;;